Time;durP1;ratioP1;P1;durP2;ratioP2;P2;SDS_P1;SDS_P2;PMS_P1;PMS_P2;Temp;Humidity;BMP_temperature;BMP_pressure;BME280_temperature;BME280_humidity;BME280_pressure;Samples;Min_cycle;Max_cycle;Signal;HPM_P1;HPM_P2
2020/12/19 00:02:08;;;;;;;49.73;35.20;;;8.80;86.30;;;;;;5034684;28;20512;-61
2020/12/19 00:04:35;;;;;;;49.77;35.63;;;8.80;86.20;;;;;;5034663;28;20065;-60
2020/12/19 00:07:01;;;;;;;47.43;34.00;;;8.90;86.40;;;;;;5034064;28;20033;-61
2020/12/19 00:09:27;;;;;;;51.27;36.47;;;8.80;86.30;;;;;;5034220;28;20029;-61
2020/12/19 00:11:53;;;;;;;53.87;38.60;;;8.90;86.30;;;;;;5034384;28;20064;-61
2020/12/19 00:14:19;;;;;;;57.83;39.97;;;8.90;86.20;;;;;;5034469;28;20061;-61
2020/12/19 00:16:45;;;;;;;59.23;40.33;;;8.90;86.40;;;;;;5034351;28;20042;-61
2020/12/19 00:19:11;;;;;;;54.63;38.03;;;8.80;86.40;;;;;;5034342;28;20099;-61
2020/12/19 00:21:37;;;;;;;58.70;41.20;;;8.80;86.50;;;;;;5034485;28;20033;-61
2020/12/19 00:24:04;;;;;;;51.73;37.83;;;8.80;86.60;;;;;;5034435;28;20040;-61
2020/12/19 00:26:37;;;;;;;60.77;38.40;;;8.80;86.50;;;;;;5034290;28;20021;-61
2020/12/19 00:29:05;;;;;;;53.07;36.57;;;8.80;86.60;;;;;;5034421;28;20060;-61
2020/12/19 00:31:31;;;;;;;54.23;39.13;;;8.80;86.70;;;;;;5033847;28;20176;-61
2020/12/19 00:33:57;;;;;;;56.40;38.30;;;8.80;86.70;;;;;;5033874;28;20052;-61
2020/12/19 00:36:23;;;;;;;50.10;35.67;;;8.80;86.70;;;;;;5033768;28;20394;-61
2020/12/19 00:38:48;;;;;;;50.80;37.30;;;8.80;86.60;;;;;;5033903;28;20470;-61
2020/12/19 00:41:20;;;;;;;53.57;36.63;;;8.80;86.50;;;;;;5033789;28;20438;-61
2020/12/19 00:43:46;;;;;;;52.10;36.50;;;8.80;86.40;;;;;;5033739;28;20021;-61
2020/12/19 00:46:13;;;;;;;50.57;34.27;;;8.80;86.30;;;;;;5033587;28;20053;-61
2020/12/19 00:48:40;;;;;;;50.63;34.27;;;8.80;86.30;;;;;;5033682;28;20033;-62
2020/12/19 00:51:14;;;;;;;50.30;34.43;;;8.80;86.30;;;;;;5033818;28;20018;-61
2020/12/19 00:53:41;;;;;;;47.60;31.83;;;8.70;86.20;;;;;;5033812;28;20496;-61
2020/12/19 00:56:22;;;;;;;43.70;29.60;;;8.70;86.00;;;;;;5033560;28;20393;-61
2020/12/19 00:58:49;;;;;;;43.73;28.93;;;8.70;86.00;;;;;;5033560;28;20421;-62
2020/12/19 01:01:16;;;;;;;33.67;25.23;;;8.70;86.00;;;;;;5033600;28;20018;-61
2020/12/19 01:03:44;;;;;;;30.70;21.80;;;8.70;85.90;;;;;;5033662;28;20021;-61
2020/12/19 01:06:20;;;;;;;25.90;18.73;;;8.70;85.50;;;;;;5033476;28;20091;-61
2020/12/19 01:08:51;;;;;;;22.97;17.03;;;8.70;85.20;;;;;;5033533;28;20105;-61
2020/12/19 01:11:18;;;;;;;19.03;14.10;;;8.70;84.80;;;;;;5033442;28;20025;-61
2020/12/19 01:13:44;;;;;;;18.57;12.93;;;8.70;84.20;;;;;;5033480;28;20028;-61
2020/12/19 01:16:15;;;;;;;15.93;12.13;;;8.70;84.10;;;;;;5033164;28;20037;-61
2020/12/19 01:18:44;;;;;;;16.47;11.20;;;8.60;83.50;;;;;;5033137;28;20057;-61
2020/12/19 01:21:18;;;;;;;18.27;11.83;;;8.70;83.50;;;;;;5033456;28;20105;-61
2020/12/19 01:23:45;;;;;;;14.53;10.60;;;8.70;83.50;;;;;;5033187;28;20057;-61
2020/12/19 01:26:12;;;;;;;15.90;10.70;;;8.70;83.40;;;;;;5033132;28;20036;-61
2020/12/19 01:28:37;;;;;;;20.03;11.67;;;8.70;83.10;;;;;;5033285;28;20047;-61
2020/12/19 01:31:05;;;;;;;18.53;12.03;;;8.70;82.60;;;;;;5033203;28;20424;-61
2020/12/19 01:33:31;;;;;;;18.40;13.20;;;8.70;82.60;;;;;;5033035;28;20386;-61
2020/12/19 01:35:58;;;;;;;17.67;13.70;;;8.70;82.50;;;;;;5032874;28;20037;-61
2020/12/19 01:38:24;;;;;;;20.17;12.67;;;8.70;82.70;;;;;;5032822;28;20533;-62
2020/12/19 01:40:53;;;;;;;23.83;15.07;;;8.60;83.00;;;;;;5032784;28;20033;-61
2020/12/19 01:43:19;;;;;;;21.00;15.43;;;8.60;83.20;;;;;;5032787;28;20400;-61
2020/12/19 01:45:45;;;;;;;27.27;21.37;;;8.60;83.40;;;;;;5033045;28;20033;-61
2020/12/19 01:48:22;;;;;;;31.03;22.03;;;8.60;83.50;;;;;;5033184;28;20095;-61
2020/12/19 01:50:49;;;;;;;33.10;25.10;;;8.60;83.80;;;;;;5032799;28;20513;-61
2020/12/19 01:53:20;;;;;;;38.60;26.57;;;8.60;84.00;;;;;;5032944;28;20033;-62
2020/12/19 01:55:46;;;;;;;39.50;27.70;;;8.60;84.40;;;;;;5032787;28;20032;-61
2020/12/19 01:58:12;;;;;;;40.10;27.43;;;8.50;84.60;;;;;;5031338;28;20057;-61
2020/12/19 02:00:41;;;;;;;37.57;26.67;;;8.50;85.00;;;;;;5030086;28;20122;-62
2020/12/19 02:03:08;;;;;;;41.60;29.10;;;8.50;85.00;;;;;;5033320;28;20029;-62
2020/12/19 02:05:38;;;;;;;39.80;28.70;;;8.50;85.00;;;;;;5035957;28;20470;-61
2020/12/19 02:08:06;;;;;;;38.33;27.60;;;8.40;85.00;;;;;;5036604;28;20017;-62
2020/12/19 02:10:32;;;;;;;44.43;29.97;;;8.40;85.40;;;;;;5036480;28;20040;-61
2020/12/19 02:13:02;;;;;;;43.70;30.83;;;8.40;85.60;;;;;;5036327;28;20026;-61
2020/12/19 02:15:45;;;;;;;51.13;34.10;;;8.40;85.60;;;;;;5036487;28;20034;-61
2020/12/19 02:18:12;;;;;;;49.33;34.80;;;8.50;85.80;;;;;;5036396;28;20053;-61
2020/12/19 02:20:38;;;;;;;50.70;34.47;;;8.40;86.00;;;;;;5036359;28;20032;-61
2020/12/19 02:23:06;;;;;;;49.07;33.10;;;8.50;85.90;;;;;;5036357;28;20108;-62
2020/12/19 02:25:37;;;;;;;46.87;34.53;;;8.40;85.90;;;;;;5036527;28;20402;-61
2020/12/19 02:28:05;;;;;;;49.63;34.47;;;8.50;86.00;;;;;;5036206;28;20421;-62
2020/12/19 02:30:32;;;;;;;42.10;30.80;;;8.50;86.20;;;;;;5036182;28;20029;-61
2020/12/19 02:32:59;;;;;;;43.87;31.80;;;8.40;86.20;;;;;;5036091;28;20486;-61
2020/12/19 02:35:26;;;;;;;39.87;29.07;;;8.40;86.30;;;;;;5035494;28;20108;-61
2020/12/19 02:37:52;;;;;;;41.87;28.80;;;8.40;86.20;;;;;;5035856;28;20029;-61
2020/12/19 02:40:18;;;;;;;41.27;30.13;;;8.50;86.20;;;;;;5035917;28;20088;-61
2020/12/19 02:42:44;;;;;;;41.23;29.70;;;8.40;86.40;;;;;;5035687;28;20344;-61
2020/12/19 02:45:11;;;;;;;42.43;29.37;;;8.40;86.40;;;;;;5036081;28;20143;-61
2020/12/19 02:47:37;;;;;;;45.47;29.30;;;8.30;86.50;;;;;;5035828;28;20112;-61
2020/12/19 02:50:05;;;;;;;39.03;28.53;;;8.30;86.60;;;;;;5035434;28;20029;-61
2020/12/19 02:52:31;;;;;;;41.07;27.97;;;8.30;86.80;;;;;;5035640;28;20021;-61
2020/12/19 02:54:56;;;;;;;40.13;28.30;;;8.30;86.70;;;;;;5035465;28;20511;-61
2020/12/19 02:57:22;;;;;;;40.80;27.50;;;8.30;86.60;;;;;;5035700;28;20026;-61
2020/12/19 02:59:48;;;;;;;40.33;28.80;;;8.30;86.60;;;;;;5035436;28;20053;-61
2020/12/19 03:02:14;;;;;;;37.90;28.07;;;8.30;86.60;;;;;;5035602;28;20079;-61
2020/12/19 03:04:39;;;;;;;37.70;26.80;;;8.30;86.90;;;;;;5035552;28;20060;-61
2020/12/19 03:07:05;;;;;;;37.67;26.27;;;8.30;87.30;;;;;;5035397;28;20360;-61
2020/12/19 03:09:31;;;;;;;33.23;23.03;;;8.30;87.10;;;;;;5035730;28;20036;-61
2020/12/19 03:11:57;;;;;;;33.00;23.13;;;8.30;87.20;;;;;;5035442;28;20030;-62
2020/12/19 03:14:22;;;;;;;28.57;21.80;;;8.30;87.40;;;;;;5034127;28;20036;-61
2020/12/19 03:16:48;;;;;;;27.13;20.53;;;8.30;87.20;;;;;;5035321;28;20091;-61
2020/12/19 03:19:14;;;;;;;28.27;20.43;;;8.30;86.70;;;;;;5035171;28;20056;-62
2020/12/19 03:21:40;;;;;;;31.93;21.67;;;8.40;86.00;;;;;;5035337;28;20041;-61
2020/12/19 03:24:05;;;;;;;25.83;19.23;;;8.40;85.60;;;;;;5034231;28;20029;-61
2020/12/19 03:26:32;;;;;;;26.23;19.17;;;8.40;85.60;;;;;;5035311;28;20033;-61
2020/12/19 03:28:57;;;;;;;22.87;16.97;;;8.40;85.40;;;;;;5035232;28;20041;-61
2020/12/19 03:31:24;;;;;;;21.37;17.00;;;8.30;85.30;;;;;;5035026;28;20370;-62
2020/12/19 03:33:50;;;;;;;25.70;16.33;;;8.30;85.60;;;;;;5035320;28;20375;-61
2020/12/19 03:36:15;;;;;;;21.80;16.30;;;8.30;85.80;;;;;;5034793;28;20068;-61
2020/12/19 03:38:41;;;;;;;19.60;15.50;;;8.30;85.80;;;;;;5034872;28;20017;-61
2020/12/19 03:41:07;;;;;;;21.10;14.80;;;8.30;85.70;;;;;;5035003;28;20075;-62
2020/12/19 03:43:32;;;;;;;21.00;15.37;;;8.30;85.50;;;;;;5034957;28;20026;-61
2020/12/19 03:45:58;;;;;;;16.47;12.63;;;8.40;85.50;;;;;;5034722;28;20033;-61
2020/12/19 03:48:24;;;;;;;23.97;14.57;;;8.40;85.40;;;;;;5034984;28;20051;-61
2020/12/19 03:50:50;;;;;;;18.63;13.80;;;8.40;85.20;;;;;;5034859;28;20064;-61
2020/12/19 03:53:16;;;;;;;27.03;16.17;;;8.30;85.10;;;;;;5034932;28;20100;-61
2020/12/19 03:55:41;;;;;;;22.40;15.47;;;8.40;85.30;;;;;;5034642;28;20030;-61
2020/12/19 03:58:07;;;;;;;22.10;17.17;;;8.40;85.10;;;;;;5034467;28;20053;-61
2020/12/19 04:00:33;;;;;;;36.50;18.93;;;8.40;85.10;;;;;;5034446;28;20609;-61
2020/12/19 04:02:59;;;;;;;28.07;19.60;;;8.40;85.00;;;;;;5034608;28;20060;-61
2020/12/19 04:05:25;;;;;;;27.97;19.00;;;8.40;85.00;;;;;;5034814;28;20076;-61
2020/12/19 04:07:50;;;;;;;28.50;22.07;;;8.40;84.90;;;;;;5034754;28;20441;-61
2020/12/19 04:10:16;;;;;;;37.00;25.80;;;8.40;85.00;;;;;;5034463;28;20025;-62
2020/12/19 04:12:42;;;;;;;35.13;22.63;;;8.40;85.20;;;;;;5034521;28;20115;-61
2020/12/19 04:15:09;;;;;;;28.53;21.73;;;8.40;85.60;;;;;;5034276;28;20386;-61
2020/12/19 04:17:35;;;;;;;29.83;22.77;;;8.30;85.80;;;;;;5034530;28;20042;-61
2020/12/19 04:20:02;;;;;;;36.00;25.70;;;8.30;86.30;;;;;;5034567;28;20405;-62
2020/12/19 04:22:28;;;;;;;41.17;27.20;;;8.30;86.20;;;;;;5034295;28;20025;-62
2020/12/19 04:24:53;;;;;;;41.00;26.87;;;8.30;86.20;;;;;;5033752;28;20032;-62
2020/12/19 04:27:19;;;;;;;36.93;28.37;;;8.30;86.70;;;;;;5033960;28;20052;-61
2020/12/19 04:29:45;;;;;;;40.17;27.93;;;8.30;86.90;;;;;;5033973;28;20022;-61
2020/12/19 04:32:10;;;;;;;32.87;26.17;;;8.30;86.90;;;;;;5033911;28;20022;-61
2020/12/19 04:34:36;;;;;;;38.00;26.60;;;8.20;86.90;;;;;;5033962;28;20048;-61
2020/12/19 04:37:02;;;;;;;36.17;26.23;;;8.20;87.10;;;;;;5033791;28;20097;-61
2020/12/19 04:39:27;;;;;;;37.23;27.27;;;8.20;87.20;;;;;;5034013;28;20029;-61
2020/12/19 04:41:53;;;;;;;34.47;25.47;;;8.20;87.30;;;;;;5033843;28;20473;-61
2020/12/19 04:44:20;;;;;;;34.83;25.20;;;8.30;87.50;;;;;;5033698;28;20026;-66
2020/12/19 04:46:47;;;;;;;34.63;24.30;;;8.30;87.50;;;;;;5033517;28;20030;-61
2020/12/19 04:49:13;;;;;;;34.07;24.47;;;8.30;87.50;;;;;;5033450;28;20025;-62
2020/12/19 04:51:39;;;;;;;43.50;23.37;;;8.30;87.60;;;;;;5033667;28;20028;-61
2020/12/19 04:54:05;;;;;;;37.70;24.27;;;8.30;87.50;;;;;;5033415;28;20045;-68
2020/12/19 04:56:31;;;;;;;50.03;26.03;;;8.30;87.70;;;;;;5033333;28;20512;-62
2020/12/19 04:59:01;;;;;;;53.73;25.30;;;8.30;87.60;;;;;;5033781;28;20029;-68
2020/12/19 05:01:27;;;;;;;63.40;24.60;;;8.30;87.70;;;;;;5033600;28;20105;-61
2020/12/19 05:03:54;;;;;;;48.37;22.87;;;8.30;87.60;;;;;;5033524;28;20017;-61
2020/12/19 05:06:28;;;;;;;45.00;24.20;;;8.40;87.40;;;;;;5033281;28;20033;-61
2020/12/19 05:08:57;;;;;;;42.10;24.53;;;8.40;87.20;;;;;;5033299;28;20033;-61
2020/12/19 05:11:25;;;;;;;35.83;23.37;;;8.40;87.10;;;;;;5033166;28;20110;-61
2020/12/19 05:13:51;;;;;;;46.67;24.57;;;8.40;87.20;;;;;;5032976;28;20079;-62
2020/12/19 05:16:18;;;;;;;39.83;25.80;;;8.30;87.60;;;;;;5032732;28;20425;-62
2020/12/19 05:18:44;;;;;;;37.00;25.80;;;8.30;87.70;;;;;;5033316;28;20041;-61
2020/12/19 05:21:11;;;;;;;35.47;23.93;;;8.30;87.80;;;;;;5033363;28;20029;-62
2020/12/19 05:23:41;;;;;;;34.93;24.03;;;8.30;87.80;;;;;;5033213;28;20052;-62
2020/12/19 05:26:09;;;;;;;30.73;20.53;;;8.30;87.70;;;;;;5033061;28;20037;-62
2020/12/19 05:28:38;;;;;;;25.53;18.83;;;8.30;87.80;;;;;;5033191;28;20108;-61
2020/12/19 05:31:04;;;;;;;24.07;17.97;;;8.30;87.70;;;;;;5033076;28;20059;-61
2020/12/19 05:33:35;;;;;;;22.83;17.47;;;8.30;87.60;;;;;;5032828;28;20021;-61
2020/12/19 05:36:03;;;;;;;27.03;18.17;;;8.30;87.40;;;;;;5032114;28;20033;-62
2020/12/19 05:38:29;;;;;;;21.33;16.40;;;8.40;87.30;;;;;;5033066;28;20010;-62
2020/12/19 05:40:57;;;;;;;21.87;16.33;;;8.40;87.30;;;;;;5032821;28;20033;-61
2020/12/19 05:43:23;;;;;;;20.30;15.87;;;8.40;87.10;;;;;;5032825;28;20018;-62
2020/12/19 05:45:49;;;;;;;27.83;17.63;;;8.40;87.00;;;;;;5032940;28;20071;-61
2020/12/19 05:48:14;;;;;;;22.77;17.17;;;8.40;86.70;;;;;;5032927;28;20052;-61
2020/12/19 05:50:41;;;;;;;20.13;15.80;;;8.40;86.60;;;;;;5032552;28;20033;-62
2020/12/19 05:53:08;;;;;;;21.33;16.40;;;8.50;86.60;;;;;;5032508;28;20485;-62
2020/12/19 05:55:34;;;;;;;20.87;16.40;;;8.50;86.40;;;;;;5032601;28;20030;-61
2020/12/19 05:58:02;;;;;;;23.27;15.70;;;8.50;86.30;;;;;;5032659;28;20021;-61
2020/12/19 06:00:30;;;;;;;21.60;15.70;;;8.40;86.10;;;;;;5032736;28;20021;-61
2020/12/19 06:02:57;;;;;;;19.43;15.10;;;8.40;86.00;;;;;;5033013;28;20025;-61
2020/12/19 06:05:24;;;;;;;19.57;15.20;;;8.40;86.00;;;;;;5032773;28;20021;-62
2020/12/19 06:07:50;;;;;;;20.00;15.27;;;8.40;86.10;;;;;;5032790;28;20374;-61
2020/12/19 06:10:18;;;;;;;17.20;14.20;;;8.40;86.00;;;;;;5032678;28;20022;-61
2020/12/19 06:13:05;;;;;;;19.73;14.80;;;8.40;86.30;;;;;;5032897;28;20022;-61
2020/12/19 06:16:07;;;;;;;20.33;15.07;;;8.40;86.20;;;;;;5032390;28;20108;-61
2020/12/19 06:18:48;;;;;;;18.27;13.10;;;8.40;86.10;;;;;;5032242;28;20490;-61
2020/12/19 06:21:15;;;;;;;15.73;12.13;;;8.40;85.50;;;;;;5032749;28;20264;-61
2020/12/19 06:23:41;;;;;;;16.27;13.20;;;8.40;85.50;;;;;;5032516;28;20057;-61
2020/12/19 06:26:11;;;;;;;16.60;12.83;;;8.40;85.40;;;;;;5032489;28;20097;-61
2020/12/19 06:28:43;;;;;;;15.97;11.80;;;8.40;85.20;;;;;;5032466;28;20029;-62
2020/12/19 06:31:15;;;;;;;16.80;12.55;;;8.50;84.70;;;;;;5032273;28;20042;-61
2020/12/19 06:33:43;;;;;;;18.40;13.05;;;8.50;84.40;;;;;;5032481;28;20033;-61
2020/12/19 06:36:18;;;;;;;17.47;12.50;;;8.40;84.30;;;;;;5032397;28;20038;-61
2020/12/19 06:38:52;;;;;;;19.00;12.90;;;8.50;84.30;;;;;;5032350;28;20109;-61
2020/12/19 06:42:05;;;;;;;18.83;13.40;;;8.50;84.30;;;;;;5032562;28;20038;-62
2020/12/19 06:44:32;;;;;;;23.35;13.52;;;8.50;84.50;;;;;;5023451;28;20038;-61
2020/12/19 06:47:01;;;;;;;19.23;13.37;;;8.50;84.50;;;;;;5032282;28;20083;-61
2020/12/19 06:49:32;;;;;;;20.30;14.37;;;8.50;85.00;;;;;;5035681;28;20024;-62
2020/12/19 06:52:10;;;;;;;25.53;17.00;;;8.40;84.90;;;;;;5035881;28;20037;-61
2020/12/19 06:54:38;;;;;;;24.83;18.53;;;8.50;84.90;;;;;;5036182;28;20033;-61
2020/12/19 06:57:06;;;;;;;30.13;20.60;;;8.50;84.90;;;;;;5035754;28;20059;-61
2020/12/19 06:59:34;;;;;;;28.57;21.20;;;8.50;85.00;;;;;;5035905;28;20025;-61
2020/12/19 07:02:46;;;;;;;30.23;21.57;;;8.50;85.10;;;;;;5035873;28;20068;-61
2020/12/19 07:05:25;;;;;;;32.03;24.30;;;8.50;85.20;;;;;;5017543;28;20429;-68
2020/12/19 07:07:53;;;;;;;30.80;22.83;;;8.40;85.60;;;;;;5035338;28;20256;-60
2020/12/19 07:10:35;;;;;;;34.77;24.13;;;8.40;86.10;;;;;;5035721;28;20037;-61
2020/12/19 07:13:01;;;;;;;31.17;22.80;;;8.30;86.40;;;;;;5035720;28;20025;-60
2020/12/19 07:15:48;;;;;;;34.53;22.33;;;8.30;86.60;;;;;;5035640;28;20033;-60
2020/12/19 07:18:28;;;;;;;29.13;21.97;;;8.30;86.80;;;;;;5035101;28;20060;-61
2020/12/19 07:21:05;;;;;;;31.27;22.33;;;8.30;86.70;;;;;;5035292;28;20026;-61
2020/12/19 07:23:32;;;;;;;27.37;21.53;;;8.30;86.30;;;;;;5035452;28;20477;-61
2020/12/19 07:25:58;;;;;;;27.03;22.30;;;8.30;86.40;;;;;;5035379;28;20022;-60
2020/12/19 07:28:25;;;;;;;32.03;22.37;;;8.30;86.50;;;;;;5035048;28;20456;-61
2020/12/19 07:30:51;;;;;;;29.60;22.80;;;8.30;86.60;;;;;;5032689;28;20490;-61
2020/12/19 07:33:17;;;;;;;31.30;21.97;;;8.40;86.50;;;;;;5034908;28;20466;-61
2020/12/19 07:35:43;;;;;;;33.50;22.67;;;8.40;86.60;;;;;;5035036;28;20542;-61
2020/12/19 07:38:09;;;;;;;34.80;23.80;;;8.40;86.60;;;;;;5034484;28;20029;-60
2020/12/19 07:40:35;;;;;;;33.50;22.93;;;8.40;86.90;;;;;;5034605;28;20133;-61
2020/12/19 07:43:05;;;;;;;38.00;24.83;;;8.40;87.00;;;;;;5034428;28;20129;-61
2020/12/19 07:45:32;;;;;;;41.17;24.80;;;8.40;87.10;;;;;;5034243;28;20049;-61
2020/12/19 07:47:58;;;;;;;39.03;23.60;;;8.40;87.20;;;;;;5034737;28;20100;-61
2020/12/19 07:50:25;;;;;;;36.80;24.90;;;8.40;87.20;;;;;;5034629;28;20125;-61
2020/12/19 07:53:07;;;;;;;37.43;25.87;;;8.40;87.40;;;;;;5034332;28;20021;-61
2020/12/19 07:55:35;;;;;;;39.85;27.08;;;8.40;87.60;;;;;;5033999;28;20037;-61
2020/12/19 07:58:04;;;;;;;44.57;27.50;;;8.40;87.60;;;;;;5034072;28;20080;-61
2020/12/19 08:00:31;;;;;;;44.60;27.13;;;8.50;87.50;;;;;;5033542;28;20029;-61
2020/12/19 08:02:57;;;;;;;39.97;25.87;;;8.50;87.30;;;;;;5034326;28;20097;-61
2020/12/19 08:05:23;;;;;;;46.97;27.00;;;8.50;87.20;;;;;;5033870;28;20041;-61
2020/12/19 08:07:53;;;;;;;41.43;27.73;;;8.50;86.90;;;;;;5034266;28;20037;-61
2020/12/19 08:10:20;;;;;;;39.70;27.20;;;8.50;86.70;;;;;;5033965;28;20029;-60
2020/12/19 08:12:46;;;;;;;40.83;26.57;;;8.60;87.00;;;;;;5033524;28;20025;-62
2020/12/19 08:15:15;;;;;;;34.87;23.77;;;8.60;87.10;;;;;;5032681;28;20040;-61
2020/12/19 08:17:50;;;;;;;42.10;24.10;;;8.60;87.10;;;;;;5032165;28;20037;-61
2020/12/19 08:20:29;;;;;;;39.73;25.80;;;8.70;86.90;;;;;;5033126;28;20505;-61
2020/12/19 08:22:56;;;;;;;38.87;22.80;;;8.70;86.60;;;;;;5033906;28;20018;-62
2020/12/19 08:25:22;;;;;;;33.33;22.27;;;8.70;86.30;;;;;;5033803;28;20470;-68
2020/12/19 08:27:49;;;;;;;37.40;21.77;;;8.70;86.00;;;;;;5033442;28;20026;-67
2020/12/19 08:30:30;;;;;;;29.00;19.90;;;8.80;86.10;;;;;;5033804;28;20052;-66
2020/12/19 08:33:07;;;;;;;29.00;18.50;;;8.80;86.10;;;;;;5033860;28;20086;-67
2020/12/19 08:35:40;;;;;;;23.93;16.23;;;8.80;85.80;;;;;;5033296;28;20402;-70
2020/12/19 08:38:15;;;;;;;21.83;14.93;;;8.80;85.70;;;;;;5031639;28;20100;-62
2020/12/19 08:40:45;;;;;;;21.20;14.17;;;8.90;85.40;;;;;;5030542;28;20107;-62
2020/12/19 08:43:16;;;;;;;24.33;13.50;;;8.90;85.10;;;;;;5030778;28;20076;-61
2020/12/19 08:45:49;;;;;;;22.53;14.27;;;8.90;84.70;;;;;;5032895;28;20060;-62
2020/12/19 08:48:17;;;;;;;27.63;14.73;;;9.00;84.40;;;;;;5033975;28;20021;-61
2020/12/19 08:50:44;;;;;;;20.90;13.93;;;9.00;84.10;;;;;;5033857;28;20029;-61
2020/12/19 08:53:23;;;;;;;21.30;14.10;;;9.00;83.80;;;;;;5033614;28;20076;-61
2020/12/19 08:55:50;;;;;;;18.37;13.60;;;9.00;83.50;;;;;;5032146;28;20394;-63
2020/12/19 08:58:27;;;;;;;21.60;13.83;;;9.00;83.30;;;;;;5033492;28;20021;-72
2020/12/19 09:00:54;;;;;;;23.73;13.90;;;9.10;83.30;;;;;;5033487;28;20033;-62
2020/12/19 09:03:33;;;;;;;23.10;14.23;;;9.10;83.20;;;;;;5033892;28;20105;-61
2020/12/19 09:06:00;;;;;;;18.00;13.33;;;9.10;83.10;;;;;;5033668;28;20034;-62
2020/12/19 09:08:35;;;;;;;17.73;13.00;;;9.20;83.00;;;;;;5031343;28;20028;-62
2020/12/19 09:11:02;;;;;;;20.13;13.00;;;9.20;82.80;;;;;;5030801;28;20028;-62
2020/12/19 09:13:28;;;;;;;17.97;13.23;;;9.20;82.70;;;;;;5032499;28;20069;-62
2020/12/19 09:15:57;;;;;;;17.70;13.13;;;9.30;82.70;;;;;;5033398;28;20065;-62
2020/12/19 09:18:25;;;;;;;24.30;15.10;;;9.30;82.60;;;;;;5032336;28;20053;-62
2020/12/19 09:20:57;;;;;;;33.20;14.73;;;9.30;82.70;;;;;;5032100;28;20040;-62
2020/12/19 09:23:25;;;;;;;26.50;14.90;;;9.40;82.50;;;;;;5031178;28;20033;-64
2020/12/19 09:25:52;;;;;;;27.97;14.80;;;9.40;82.30;;;;;;5030129;28;20065;-64
2020/12/19 09:28:18;;;;;;;26.60;13.93;;;9.40;81.90;;;;;;5029955;28;20104;-62
2020/12/19 09:30:44;;;;;;;23.80;14.17;;;9.50;81.50;;;;;;5032578;28;20113;-77
2020/12/19 09:33:09;;;;;;;25.67;14.67;;;9.50;81.40;;;;;;5033170;28;20028;-64
2020/12/19 09:35:35;;;;;;;19.80;13.93;;;9.50;81.30;;;;;;5032900;28;20104;-64
2020/12/19 09:38:01;;;;;;;25.27;13.77;;;9.50;81.20;;;;;;5032878;28;20539;-64
2020/12/19 09:40:28;;;;;;;23.33;14.20;;;9.60;81.00;;;;;;5033867;28;20033;-63
2020/12/19 09:42:54;;;;;;;21.93;14.23;;;9.60;81.00;;;;;;5033711;28;20017;-63
2020/12/19 09:45:19;;;;;;;20.13;12.73;;;9.60;80.90;;;;;;5032001;28;20485;-64
2020/12/19 09:47:45;;;;;;;19.47;13.57;;;9.70;80.90;;;;;;5032733;28;20091;-65
2020/12/19 09:50:12;;;;;;;24.87;13.57;;;9.70;80.70;;;;;;5032686;28;20021;-64
2020/12/19 09:52:41;;;;;;;18.53;13.37;;;9.70;80.50;;;;;;5032172;28;20407;-64
2020/12/19 09:55:08;;;;;;;22.43;13.73;;;9.70;80.50;;;;;;5032201;28;20072;-64
2020/12/19 09:57:35;;;;;;;22.23;13.97;;;9.80;80.40;;;;;;5031848;28;20504;-64
2020/12/19 10:00:01;;;;;;;18.23;13.80;;;9.80;80.40;;;;;;5031587;28;20025;-65
2020/12/19 10:02:27;;;;;;;24.20;15.10;;;9.90;80.20;;;;;;5032964;28;20109;-64
2020/12/19 10:04:53;;;;;;;20.47;13.77;;;9.90;80.10;;;;;;5032652;28;20060;-64
2020/12/19 10:07:18;;;;;;;24.03;14.53;;;9.90;80.10;;;;;;5033050;28;20022;-64
2020/12/19 10:09:44;;;;;;;23.40;15.10;;;10.00;80.00;;;;;;5032690;28;20053;-64
2020/12/19 10:12:10;;;;;;;20.37;14.97;;;10.00;79.80;;;;;;5032819;28;20044;-64
2020/12/19 10:14:35;;;;;;;20.73;14.47;;;10.00;79.70;;;;;;5032860;28;20063;-64
2020/12/19 10:17:01;;;;;;;23.60;14.87;;;10.00;79.60;;;;;;5032389;28;20029;-64
2020/12/19 10:19:27;;;;;;;20.40;14.23;;;10.10;79.50;;;;;;5032641;28;20034;-65
2020/12/19 10:21:53;;;;;;;18.57;14.10;;;10.10;79.30;;;;;;5032600;28;20018;-64
2020/12/19 10:24:18;;;;;;;20.53;13.77;;;10.10;79.50;;;;;;5035763;28;20608;-71
2020/12/19 10:26:48;;;;;;;23.80;14.30;;;10.10;79.10;;;;;;5036215;28;20052;-64
2020/12/19 10:29:14;;;;;;;22.40;14.37;;;10.20;79.00;;;;;;5036444;28;20030;-64
2020/12/19 10:31:40;;;;;;;20.00;14.00;;;10.20;78.90;;;;;;5036151;28;20025;-64
2020/12/19 10:34:06;;;;;;;18.38;12.68;;;10.20;79.00;;;;;;5036197;28;20029;-64
2020/12/19 10:36:32;;;;;;;18.23;14.27;;;10.30;78.70;;;;;;5035961;28;20095;-64
2020/12/19 10:38:58;;;;;;;20.03;14.90;;;10.30;78.60;;;;;;5035880;28;20021;-64
2020/12/19 10:41:23;;;;;;;19.13;15.13;;;10.40;78.60;;;;;;5035980;28;20032;-64
2020/12/19 10:43:49;;;;;;;19.27;14.10;;;10.50;78.40;;;;;;5036140;28;20026;-64
2020/12/19 10:46:21;;;;;;;21.55;14.40;;;10.60;78.00;;;;;;5035863;28;20100;-64
2020/12/19 10:48:46;;;;;;;18.70;14.55;;;10.70;77.80;;;;;;5036120;28;20032;-62
2020/12/19 10:51:12;;;;;;;18.25;14.75;;;10.90;77.50;;;;;;5036063;28;20026;-64
2020/12/19 10:53:40;;;;;;;19.92;15.23;;;10.90;77.00;;;;;;5035585;28;20033;-70
2020/12/19 10:56:06;;;;;;;20.35;15.80;;;10.90;76.70;;;;;;5035806;28;20116;-65
2020/12/19 10:58:32;;;;;;;20.45;15.70;;;11.00;76.70;;;;;;5035933;28;20100;-62
2020/12/19 11:00:57;;;;;;;27.75;18.20;;;11.00;76.70;;;;;;5035541;28;20033;-65
2020/12/19 11:03:23;;;;;;;24.38;18.08;;;11.00;76.80;;;;;;5035604;28;20359;-64
2020/12/19 11:05:49;;;;;;;27.02;19.08;;;10.90;76.90;;;;;;5035931;28;20026;-64
2020/12/19 11:08:14;;;;;;;30.83;21.65;;;10.90;77.60;;;;;;5035604;28;20025;-65
2020/12/19 11:10:42;;;;;;;30.42;22.42;;;10.80;78.40;;;;;;5035692;28;20100;-64
2020/12/19 11:13:08;;;;;;;36.85;23.42;;;10.90;78.90;;;;;;5035624;28;20513;-73
2020/12/19 11:15:34;;;;;;;36.20;25.60;;;10.80;79.20;;;;;;5035097;28;20049;-65
2020/12/19 11:18:00;;;;;;;41.47;26.60;;;10.80;79.40;;;;;;5035311;28;20045;-64
2020/12/19 11:20:25;;;;;;;39.95;28.27;;;10.80;79.50;;;;;;5035602;28;20056;-64
2020/12/19 11:22:51;;;;;;;52.50;30.75;;;10.80;79.60;;;;;;5035214;28;20029;-64
2020/12/19 11:25:17;;;;;;;49.33;30.20;;;10.70;80.50;;;;;;5035380;28;20025;-64
2020/12/19 11:27:43;;;;;;;43.27;29.47;;;10.60;80.80;;;;;;5035228;28;20105;-64
2020/12/19 11:30:09;;;;;;;52.00;29.23;;;10.60;81.20;;;;;;5035158;28;20018;-64
2020/12/19 11:32:35;;;;;;;39.10;26.73;;;10.50;81.40;;;;;;5035376;28;20379;-72
2020/12/19 11:35:00;;;;;;;38.83;26.50;;;10.50;81.60;;;;;;5034054;28;20029;-64
2020/12/19 11:37:26;;;;;;;35.30;24.27;;;10.50;81.00;;;;;;5035105;28;20033;-64
2020/12/19 11:39:53;;;;;;;37.55;25.02;;;10.50;81.20;;;;;;5034429;28;20013;-69
2020/12/19 11:42:20;;;;;;;38.72;24.67;;;10.50;81.10;;;;;;5034590;28;20034;-62
2020/12/19 11:44:46;;;;;;;32.63;24.08;;;10.60;81.20;;;;;;5034545;28;20022;-65
2020/12/19 11:47:12;;;;;;;31.00;24.50;;;10.60;81.30;;;;;;5034267;28;20029;-64
2020/12/19 11:49:38;;;;;;;32.90;24.43;;;10.70;81.30;;;;;;5034358;28;20458;-64
2020/12/19 11:52:08;;;;;;;35.00;24.10;;;10.70;81.30;;;;;;5034478;28;20061;-65
2020/12/19 11:54:37;;;;;;;34.28;24.10;;;10.70;80.90;;;;;;5034327;28;20044;-64
2020/12/19 11:57:03;;;;;;;29.75;24.38;;;10.70;80.80;;;;;;5034724;28;20030;-64
2020/12/19 11:59:29;;;;;;;30.15;23.33;;;10.60;81.10;;;;;;5034537;28;20429;-73
2020/12/19 12:01:55;;;;;;;32.97;23.80;;;10.70;81.00;;;;;;5034656;28;20036;-64
2020/12/19 12:04:21;;;;;;;35.22;25.33;;;10.70;81.40;;;;;;5034366;28;20029;-79
2020/12/19 12:06:46;;;;;;;33.15;22.95;;;10.70;81.20;;;;;;5034164;28;20036;-64
2020/12/19 12:09:12;;;;;;;28.88;22.55;;;10.70;81.30;;;;;;5034254;28;20026;-64
2020/12/19 12:11:38;;;;;;;28.20;22.88;;;10.70;81.40;;;;;;5034428;28;20060;-69
2020/12/19 12:14:05;;;;;;;33.97;22.80;;;10.70;81.50;;;;;;5034466;28;20053;-64
2020/12/19 12:16:30;;;;;;;29.13;22.27;;;10.70;81.20;;;;;;5034151;28;20034;-64
2020/12/19 12:18:57;;;;;;;29.58;23.52;;;10.70;81.50;;;;;;5034017;28;20053;-64
2020/12/19 12:21:23;;;;;;;30.37;23.93;;;10.70;81.70;;;;;;5034165;28;20029;-64
2020/12/19 12:23:49;;;;;;;28.98;22.63;;;10.60;81.60;;;;;;5034246;28;20071;-63
2020/12/19 12:26:41;;;;;;;28.93;23.10;;;10.70;81.70;;;;;;5034193;28;20025;-75
2020/12/19 12:29:06;;;;;;;30.17;21.80;;;10.70;81.60;;;;;;5031991;28;20091;-75
2020/12/19 12:31:35;;;;;;;30.95;22.42;;;10.70;81.90;;;;;;5033949;28;20482;-65
2020/12/19 12:34:01;;;;;;;32.42;22.60;;;10.70;81.80;;;;;;5034146;28;20441;-72
2020/12/19 12:36:29;;;;;;;30.17;22.50;;;10.70;81.90;;;;;;5033529;28;20394;-77
2020/12/19 12:38:55;;;;;;;30.13;24.05;;;10.70;81.80;;;;;;5033385;28;20060;-65
2020/12/19 12:41:20;;;;;;;30.55;23.67;;;10.70;82.10;;;;;;5033506;28;20466;-65